• Join FlightAware (Why Join?)
  • Login
  • US Flag 
10:35AM EDT


 

Airport Tracker/Info


-or-


 

Live Flight TrackerFlight Track Log ✈ EJA922 ✈ 06-Aug-2013 ✈ KAEG - KLIT

Flight Track Log - Related Links

Times and Time Zones

All times are in EDT time to prevent confusion due to time zone crossing. See the EJA922 flight status page for this flight to view local times or setup timezone preferences in your user account.

Time Position Orientation Groundspeed Altitude Reporting Facility
EDT Latitude Longitude Course Direction KTS MPH feet Rate Location/Type
11:53AM 35.1289 -106.8244 270° West 180 207 6,800  Level Albuquerque Center
11:54AM 35.1292 -106.8764 270° West 231 266 7,900 2,040 Climbing Albuquerque Center
11:55AM 35.1472 -106.9208 296° West 250 288 9,800 2,160 Climbing Albuquerque Center
11:56AM 35.2144 -106.8736 30° Northeast 337 388 11,800 2,220 Climbing Albuquerque Center
11:57AM 35.2336 -106.7406 80° East 390 449 14,500 2,460 Climbing Albuquerque Center
11:58AM 35.2350 -106.6003 89° East 408 470 16,900 2,160 Climbing Albuquerque Center
11:59AM 35.2339 -106.4378 90° East 415 478 19,000 1,860 Climbing Albuquerque Center
12:00PM 35.2325 -106.2981 91° East 414 476 20,800 1,560 Climbing Albuquerque Center
12:01PM 35.2303 -106.1583 91° East 414 476 22,300 1,440 Climbing Albuquerque Center
12:02PM 35.2289 -106.0131 91° East 426 490 23,800 1,560 Climbing Albuquerque Center
12:03PM 35.2261 -105.8353 91° East 438 504 25,600 1,560 Climbing Albuquerque Center
12:04PM 35.2242 -105.6867 91° East 440 506 27,100 1,260 Climbing Albuquerque Center
12:05PM 35.2217 -105.5392 91° East 447 514 28,300 1,200 Climbing Albuquerque Center
12:06PM 35.2189 -105.3808 91° East 458 527 29,600 1,200 Climbing Albuquerque Center
12:07PM 35.2167 -105.1922 91° East 468 539 30,900 1,080 Climbing Albuquerque Center
12:08PM 35.2136 -105.0250 91° East 482 555 31,900 840 Climbing Albuquerque Center
12:09PM 35.2108 -104.8550 91° East 493 567 32,700 480 Climbing Albuquerque Center
12:10PM 35.2075 -104.6814 91° East 503 579 33,000 120 Climbing Albuquerque Center
12:11PM 35.2014 -104.4978 92° East 525 604 33,000 180 Level Albuquerque Center
12:12PM 35.2008 -104.3144 90° East 537 618 33,400 660 Climbing Albuquerque Center
12:13PM 35.2000 -104.1350 90° East 534 615 34,400 960 Climbing Albuquerque Center
12:14PM 35.2081 -103.9603 87° East 523 602 35,400 1,020 Climbing Albuquerque Center
12:15PM 35.2217 -103.7625 85° East 520 598 36,600 1,260 Climbing Albuquerque Center
12:16PM 35.2306 -103.5850 86° East 520 598 38,100 1,140 Climbing Albuquerque Center
12:17PM 35.2386 -103.4100 87° East 515 593 39,000 420 Climbing Albuquerque Center
12:18PM 35.2450 -103.2258 88° East 530 610 39,000  Level Albuquerque Center
12:19PM 35.2433 -103.0081 90° East 543 625 39,000  Level Albuquerque Center
12:20PM 35.2406 -102.8506 91° East 542 624 39,000  Level Albuquerque Center
12:21PM 35.2381 -102.6314 91° East 539 620 39,000  Level Albuquerque Center
12:22PM 35.2356 -102.4483 91° East 540 621 39,000  Level Albuquerque Center
12:23PM 35.2336 -102.2661 91° East 538 619 39,000  Level Albuquerque Center
12:24PM 35.2306 -102.0831 91° East 540 621 39,000  Level Albuquerque Center
12:25PM 35.2289 -101.8986 91° East 540 621 39,000  Level Albuquerque Center
12:27PM 35.2264 -101.6839 91° East 540 621 39,000  Level Albuquerque Center
12:28PM 35.2225 -101.5131 92° East 541 623 39,000  Level Albuquerque Center
12:29PM 35.2189 -101.3306 91° East 538 619 39,000  Level Albuquerque Center
12:30PM 35.2139 -101.1486 92° East 542 624 39,000  Level Albuquerque Center
12:31PM 35.2094 -100.9322 91° East 534 615 39,000  Level Albuquerque Center
12:32PM 35.2044 -100.7503 92° East 536 617 39,000  Level Albuquerque Center
12:33PM 35.1994 -100.5650 92° East 536 617 39,000  Level Albuquerque Center
12:34PM 35.1947 -100.3828 92° East 537 618 39,000  Level Albuquerque Center
12:35PM 35.1897 -100.2017 92° East 536 617 39,000  Level Albuquerque Center
12:36PM 35.1836 -100.0197 92° East 536 617 39,000  Level Albuquerque Center
12:37PM 35.1756 -99.8033 93° East 534 615 39,000  Level Albuquerque Center
12:38PM 35.1694 -99.6219 92° East 535 616 39,000  Level Albuquerque Center
12:39PM 35.1636 -99.4400 92° East 536 617 39,000  Level Albuquerque Center
12:40PM 35.1564 -99.2953 93° East 536 617 39,000  Level Fort Worth Center
12:41PM 35.1486 -99.1122 93° East 536 617 39,000  Level Fort Worth Center
12:42PM 35.1425 -98.9317 92° East 536 617 39,000  Level Fort Worth Center
12:43PM 35.1364 -98.7489 92° East 536 617 39,000  Level Fort Worth Center
12:44PM 35.1278 -98.5661 93° East 536 617 39,000  Level Fort Worth Center
12:45PM 35.1206 -98.4136 93° East 531 611 39,000  Level Fort Worth Center
12:46PM 35.1117 -98.2283 93° East 526 605 39,000  Level Fort Worth Center
12:47PM 35.1022 -98.0481 94° East 533 613 39,000  Level Fort Worth Center
12:48PM 35.0925 -97.8653 94° East 538 619 39,000  Level Fort Worth Center
12:49PM 35.0828 -97.6850 94° East 538 619 39,000  Level Fort Worth Center
12:50PM 35.0725 -97.5022 94° East 538 619 39,000  Level Fort Worth Center
12:51PM 35.0600 -97.2994 94° East 543 625 39,000  Level Fort Worth Center
12:52PM 35.0492 -97.1144 94° East 543 625 39,000  Level Fort Worth Center
12:53PM 35.0403 -96.9342 93° East 543 625 39,000  Level Fort Worth Center
12:54PM 35.0311 -96.7517 93° East 537 618 39,000  Level Fort Worth Center
12:55PM 35.0197 -96.5667 94° East 537 618 39,000  Level Fort Worth Center
12:56PM 35.0100 -96.3869 94° East 537 618 39,000  Level Fort Worth Center
12:57PM 34.9978 -96.2019 95° East 537 618 39,000  Level Fort Worth Center
12:58PM 34.9856 -96.0172 95° East 537 618 39,000  Level Fort Worth Center
12:59PM 34.9772 -95.8400 93° East 537 618 39,000  Level Fort Worth Center
01:00PM 34.9642 -95.6553 95° East 529 609 39,000  Level Fort Worth Center
01:02PM 34.9381 -95.2611 95° East 552 635 39,000  Level Memphis Center
01:03PM 34.9242 -95.0806 95° East 542 624 39,000  Level Memphis Center
01:04PM 34.9081 -94.8975 96° East 542 624 39,000 -240 Level Memphis Center
01:05PM 34.8956 -94.7194 95° East 542 624 38,600 -1,260 Descending Memphis Center
01:06PM 34.8847 -94.5544 95° East 542 624 36,500 -2,400 Descending Memphis Center
01:07PM 34.8697 -94.3739 96° East 542 624 33,800 -2,700 Descending Memphis Center
01:08PM 34.8569 -94.1836 95° East 548 631 31,100 -2,880 Descending Memphis Center
01:09PM 34.8375 -93.9956 97° East 558 642 28,100 -2,940 Descending Memphis Center
01:10PM 34.8258 -93.8178 95° East 552 635 25,300 -2,820 Descending Memphis Center
01:11PM 34.8097 -93.6478 97° East 528 608 22,500 -2,760 Descending Memphis Center
01:12PM 34.7972 -93.4803 95° East 508 585 19,800 -2,700 Descending Memphis Center
01:13PM 34.7825 -93.3206 96° East 495 570 17,200 -2,580 Descending Memphis Center
01:14PM 34.7692 -93.1658 96° East 475 547 14,700 -2,580 Descending Memphis Center
01:14PM 34.7589 -93.0644 97° East 448 516 13,000 -2,340 Descending Memphis Center
01:16PM 34.7436 -92.9072 97° East 407 468 10,700 -1,500 Descending Memphis Center
01:17PM 34.7333 -92.7856 96° East 309 356 9,900 -1,260 Descending Memphis Center
01:18PM 34.7228 -92.6944 98° East 281 323 8,200 -1,680 Descending Memphis Center
01:19PM 34.7142 -92.5906 96° East 295 339 6,600 -1,620 Descending Memphis Center
01:20PM 34.7075 -92.4944 95° East 296 341 5,000 -1,260 Descending Memphis Center
01:21PM 34.7344 -92.3864 73° East 293 337 4,000 -1,020 Descending Memphis Center
01:22PM 34.7647 -92.3061 65° Northeast 240 276 2,900 -1,200 Descending Memphis Center
01:23PM 34.7761 -92.2458 77° East 225 259 1,500 -960 Descending Memphis Center
01:24PM 34.7750 -92.1900 91° East 172 198 900 -600 Descending Memphis Center
01:31PM 34.7294 -92.2248 251° West  Level Estimated
01:38PM 34.7294 -92.2248 251° West  Level Estimated
01:39PM 34.7294 -92.2248 251° West  Level Estimated